Time;durP1;ratioP1;P1;durP2;ratioP2;P2;SDS_P1;SDS_P2;PMS_P1;PMS_P2;Temp;Humidity;BMP_temperature;BMP_pressure;BME280_temperature;BME280_humidity;BME280_pressure;Samples;Min_cycle;Max_cycle;Signal;HPM_P1;HPM_P2
2022/08/26 00:01:42;;;;;;;;;;;22.60;63.00;;;;;;5043960;28;86980;-38
2022/08/26 00:04:08;;;;;;;;;;;22.60;63.10;;;;;;5043268;28;88043;-38
2022/08/26 00:06:34;;;;;;;;;;;22.50;62.90;;;;;;5043304;28;88064;-38
2022/08/26 00:09:00;;;;;;;;;;;22.60;63.10;;;;;;5043449;28;87091;-38
2022/08/26 00:11:26;;;;;;;;;;;22.50;63.00;;;;;;5046172;27;87311;-39
2022/08/26 00:13:51;;;;;;;;;;;22.50;63.10;;;;;;5043784;28;87114;-38
2022/08/26 00:16:17;;;;;;;;;;;22.50;63.10;;;;;;5043738;28;87345;-38
2022/08/26 00:18:42;;;;;;;;;;;22.50;63.10;;;;;;5043445;28;88136;-38
2022/08/26 00:21:09;;;;;;;;;;;22.50;63.10;;;;;;5043638;28;90567;-38
2022/08/26 00:23:35;;;;;;;;;;;22.50;63.10;;;;;;5043450;28;88543;-38
2022/08/26 00:26:01;;;;;;;;;;;22.50;63.10;;;;;;5042830;28;89577;-38
2022/08/26 00:28:27;;;;;;;;;;;22.40;63.10;;;;;;5042431;28;88033;-38
2022/08/26 00:30:52;;;;;;;;;;;22.40;63.20;;;;;;5043508;27;88436;-38
2022/08/26 00:33:18;;;;;;;;;;;22.40;63.20;;;;;;5045839;28;86961;-39
2022/08/26 00:35:45;;;;;;;;;;;22.40;63.20;;;;;;5043085;27;88240;-38
2022/08/26 00:38:11;;;;;;;;;;;22.40;63.20;;;;;;5042844;28;88560;-38
2022/08/26 00:40:55;;;;;;;;;;;22.40;63.20;;;;;;5043130;28;87137;-38
2022/08/26 00:43:21;;;;;;;;;;;22.40;63.20;;;;;;5043092;28;88858;-39
2022/08/26 00:45:46;;;;;;;;;;;22.40;63.30;;;;;;5043362;28;87233;-38
2022/08/26 00:48:13;;;;;;;;;;;22.40;63.30;;;;;;5042743;28;87078;-38
2022/08/26 00:50:40;;;;;;;;;;;22.40;63.30;;;;;;5043058;27;87487;-38
2022/08/26 00:53:20;;;;;;;;;;;22.30;63.30;;;;;;5041783;28;90423;-38
2022/08/26 00:55:56;;;;;;;;;;;22.30;63.30;;;;;;5046028;28;87020;-38
2022/08/26 00:58:23;;;;;;;;;;;22.30;63.30;;;;;;5042399;28;89365;-38
2022/08/26 01:00:48;;;;;;;;;;;22.30;63.30;;;;;;5042835;28;87040;-38
2022/08/26 01:03:15;;;;;;;;;;;22.30;63.30;;;;;;5042839;28;87451;-38
2022/08/26 01:05:41;;;;;;;;;;;22.30;63.30;;;;;;5042177;28;87790;-38
2022/08/26 01:08:07;;;;;;;;;;;22.30;63.40;;;;;;5042987;28;87063;-38
2022/08/26 01:10:33;;;;;;;;;;;22.30;63.30;;;;;;5043397;27;87466;-38
2022/08/26 01:13:00;;;;;;;;;;;22.20;63.30;;;;;;5042536;28;88162;-39
2022/08/26 01:15:31;;;;;;;;;;;22.20;63.30;;;;;;5042501;28;87092;-38
2022/08/26 01:17:57;;;;;;;;;;;22.20;63.40;;;;;;5044633;27;87900;-39
2022/08/26 01:20:35;;;;;;;;;;;22.20;63.40;;;;;;5042630;28;87136;-38
2022/08/26 01:23:05;;;;;;;;;;;22.20;63.40;;;;;;5042253;28;87416;-39
2022/08/26 01:25:32;;;;;;;;;;;22.20;63.50;;;;;;5042173;28;88038;-38
2022/08/26 01:27:58;;;;;;;;;;;22.20;63.50;;;;;;5042502;28;86989;-38
2022/08/26 01:30:25;;;;;;;;;;;22.20;63.50;;;;;;5042639;28;87551;-38
2022/08/26 01:32:53;;;;;;;;;;;22.10;63.40;;;;;;5041940;28;88014;-38
2022/08/26 01:35:19;;;;;;;;;;;22.10;63.50;;;;;;5043089;28;86572;-38
2022/08/26 01:37:46;;;;;;;;;;;22.10;63.50;;;;;;5042442;28;88024;-38
2022/08/26 01:40:17;;;;;;;;;;;22.10;63.50;;;;;;5045033;28;88244;-38
2022/08/26 01:42:43;;;;;;;;;;;22.10;63.50;;;;;;5042091;28;87801;-38
2022/08/26 01:45:11;;;;;;;;;;;22.10;63.50;;;;;;5041726;28;89001;-38
2022/08/26 01:47:37;;;;;;;;;;;22.10;63.50;;;;;;5041987;28;87104;-38
2022/08/26 01:50:06;;;;;;;;;;;22.10;63.60;;;;;;5042391;27;87453;-38
2022/08/26 01:52:34;;;;;;;;;;;22.10;63.50;;;;;;5041731;28;89992;-38
2022/08/26 01:54:59;;;;;;;;;;;22.00;63.50;;;;;;5042039;28;87166;-39
2022/08/26 01:57:25;;;;;;;;;;;22.00;63.60;;;;;;5042550;27;87648;-38
2022/08/26 01:59:51;;;;;;;;;;;22.00;63.60;;;;;;5043768;28;86364;-38
2022/08/26 02:02:17;;;;;;;;;;;22.00;63.60;;;;;;5048617;28;87114;-38
2022/08/26 02:04:47;;;;;;;;;;;22.00;63.60;;;;;;5045342;28;88049;-38
2022/08/26 02:07:13;;;;;;;;;;;22.00;63.60;;;;;;5044452;28;88078;-38
2022/08/26 02:09:39;;;;;;;;;;;22.00;63.60;;;;;;5045666;28;88406;-38
2022/08/26 02:12:05;;;;;;;;;;;22.00;63.60;;;;;;5045395;28;87965;-38
2022/08/26 02:14:36;;;;;;;;;;;21.90;63.50;;;;;;5045222;28;87397;-38
2022/08/26 02:17:02;;;;;;;;;;;22.00;63.70;;;;;;5045856;28;88272;-38
2022/08/26 02:19:30;;;;;;;;;;;21.90;63.60;;;;;;5044988;28;89466;-38
2022/08/26 02:21:58;;;;;;;;;;;21.90;63.60;;;;;;5047819;28;87153;-39
2022/08/26 02:24:25;;;;;;;;;;;21.90;63.70;;;;;;5045564;28;86246;-38
2022/08/26 02:26:51;;;;;;;;;;;21.90;63.70;;;;;;5045167;28;86976;-38
2022/08/26 02:29:19;;;;;;;;;;;21.90;63.70;;;;;;5045539;27;87328;-38
2022/08/26 02:31:47;;;;;;;;;;;21.90;63.70;;;;;;5043973;28;89105;-38
2022/08/26 02:34:14;;;;;;;;;;;21.90;63.70;;;;;;5045161;28;86992;-38
2022/08/26 02:36:40;;;;;;;;;;;21.80;63.60;;;;;;5045163;27;87331;-38
2022/08/26 02:39:06;;;;;;;;;;;21.80;63.70;;;;;;5044764;28;87933;-38
2022/08/26 02:41:32;;;;;;;;;;;21.80;63.70;;;;;;5043416;28;87163;-38
2022/08/26 02:43:58;;;;;;;;;;;21.80;63.60;;;;;;5047839;27;87276;-38
2022/08/26 02:46:23;;;;;;;;;;;21.80;63.70;;;;;;5045124;28;87129;-38
2022/08/26 02:48:49;;;;;;;;;;;21.80;63.70;;;;;;5045524;28;86667;-38
2022/08/26 02:51:14;;;;;;;;;;;21.80;63.70;;;;;;5044190;28;88808;-38
2022/08/26 02:53:40;;;;;;;;;;;21.70;64.40;;;;;;5045007;28;87207;-38
2022/08/26 02:56:09;;;;;;;;;;;21.70;63.70;;;;;;5044265;28;87840;-38
2022/08/26 02:58:35;;;;;;;;;;;21.70;63.80;;;;;;5044222;28;88546;-39
2022/08/26 03:01:00;;;;;;;;;;;21.70;63.70;;;;;;5044947;28;87095;-38
2022/08/26 03:03:26;;;;;;;;;;;21.70;63.80;;;;;;5044971;27;87085;-38
2022/08/26 03:05:52;;;;;;;;;;;21.70;63.80;;;;;;5047304;28;88135;-39
2022/08/26 03:08:18;;;;;;;;;;;21.70;63.70;;;;;;5044815;28;87167;-38
2022/08/26 03:10:45;;;;;;;;;;;21.70;63.80;;;;;;5044070;28;88021;-38
2022/08/26 03:13:10;;;;;;;;;;;21.60;63.80;;;;;;5044772;28;86342;-38
2022/08/26 03:15:36;;;;;;;;;;;21.60;63.70;;;;;;5044777;28;86957;-39
2022/08/26 03:18:01;;;;;;;;;;;21.60;63.80;;;;;;5044478;28;88008;-38
2022/08/26 03:20:27;;;;;;;;;;;21.70;63.80;;;;;;5043881;28;88024;-38
2022/08/26 03:22:54;;;;;;;;;;;21.60;63.70;;;;;;5043759;27;88326;-38
2022/08/26 03:25:19;;;;;;;;;;;21.60;63.80;;;;;;5043720;28;89573;-38
2022/08/26 03:27:45;;;;;;;;;;;21.60;63.80;;;;;;5047171;28;87285;-38
2022/08/26 03:32:56;;;;;;;;;;;21.60;63.80;;;;;;5044353;28;86986;-38
2022/08/26 03:35:22;;;;;;;;;;;21.60;63.80;;;;;;5044342;28;87652;-38
2022/08/26 03:37:47;;;;;;;;;;;21.50;63.70;;;;;;5044058;28;88656;-38
2022/08/26 03:40:13;;;;;;;;;;;21.60;63.80;;;;;;5043697;28;87115;-38
2022/08/26 03:42:39;;;;;;;;;;;21.50;63.80;;;;;;5043913;27;88842;-38
2022/08/26 03:45:07;;;;;;;;;;;21.50;63.80;;;;;;5043129;28;88877;-38
2022/08/26 03:47:32;;;;;;;;;;;21.50;63.90;;;;;;5043882;28;87127;-38
2022/08/26 03:49:58;;;;;;;;;;;21.50;63.90;;;;;;5046612;28;87501;-38
2022/08/26 03:52:24;;;;;;;;;;;21.50;63.80;;;;;;5043949;28;87079;-38
2022/08/26 03:54:50;;;;;;;;;;;21.40;63.80;;;;;;5043747;27;87510;-39
2022/08/26 03:57:15;;;;;;;;;;;21.50;63.80;;;;;;5043676;28;88034;-38
2022/08/26 03:59:41;;;;;;;;;;;21.40;63.80;;;;;;5043943;28;87085;-38
2022/08/26 04:02:07;;;;;;;;;;;21.40;63.90;;;;;;5044070;27;88003;-38
2022/08/26 04:04:33;;;;;;;;;;;21.40;63.80;;;;;;5043669;28;87109;-38
2022/08/26 04:07:00;;;;;;;;;;;21.40;63.80;;;;;;5043575;28;87036;-38
2022/08/26 04:09:26;;;;;;;;;;;21.40;63.90;;;;;;5042963;27;87948;-38
2022/08/26 04:11:52;;;;;;;;;;;21.40;63.90;;;;;;5045948;28;89566;-38
2022/08/26 04:14:19;;;;;;;;;;;21.40;63.90;;;;;;5043708;27;87303;-38
2022/08/26 04:16:44;;;;;;;;;;;21.40;63.90;;;;;;5043190;28;88148;-38
2022/08/26 04:19:11;;;;;;;;;;;21.40;63.90;;;;;;5043671;28;87367;-38
2022/08/26 04:21:37;;;;;;;;;;;21.30;63.90;;;;;;5042415;27;89039;-38
2022/08/26 04:24:03;;;;;;;;;;;21.30;63.90;;;;;;5042478;28;87949;-38
2022/08/26 04:26:30;;;;;;;;;;;21.30;63.90;;;;;;5043781;28;86414;-39
2022/08/26 04:28:55;;;;;;;;;;;21.30;63.90;;;;;;5043556;27;87018;-38
2022/08/26 04:31:21;;;;;;;;;;;21.30;64.00;;;;;;5045958;28;88015;-38
2022/08/26 04:33:47;;;;;;;;;;;21.30;63.90;;;;;;5042978;28;88006;-38
2022/08/26 04:36:13;;;;;;;;;;;21.30;64.00;;;;;;5042810;28;87119;-38
2022/08/26 04:38:38;;;;;;;;;;;21.30;64.00;;;;;;5043144;28;87071;-38
2022/08/26 04:41:06;;;;;;;;;;;21.30;63.90;;;;;;5043093;28;87430;-38
2022/08/26 04:43:32;;;;;;;;;;;21.30;64.00;;;;;;5042755;28;87948;-38
2022/08/26 04:46:01;;;;;;;;;;;21.30;63.90;;;;;;5043113;28;87060;-38
2022/08/26 04:48:27;;;;;;;;;;;21.20;64.00;;;;;;5043179;28;87482;-38
2022/08/26 04:50:53;;;;;;;;;;;21.20;64.00;;;;;;5043092;28;88613;-38
2022/08/26 04:53:18;;;;;;;;;;;21.20;64.00;;;;;;5045751;28;87176;-38
2022/08/26 04:55:44;;;;;;;;;;;21.20;64.10;;;;;;5042761;28;88090;-38
2022/08/26 04:58:12;;;;;;;;;;;21.20;64.10;;;;;;5042496;28;88050;-38
2022/08/26 05:00:38;;;;;;;;;;;21.20;64.10;;;;;;5042944;28;88532;-38
2022/08/26 05:03:03;;;;;;;;;;;21.20;64.10;;;;;;5042346;28;89517;-38
2022/08/26 05:05:29;;;;;;;;;;;21.20;64.10;;;;;;5043060;28;87169;-37
2022/08/26 05:07:54;;;;;;;;;;;21.20;64.10;;;;;;5042531;28;87025;-38
2022/08/26 05:10:20;;;;;;;;;;;21.20;64.10;;;;;;5042551;28;88354;-38
2022/08/26 05:12:45;;;;;;;;;;;21.10;64.20;;;;;;5042644;28;87015;-38
2022/08/26 05:15:11;;;;;;;;;;;21.10;64.10;;;;;;5046011;28;87967;-38
2022/08/26 05:17:36;;;;;;;;;;;21.10;64.10;;;;;;5042694;28;87126;-38
2022/08/26 05:20:03;;;;;;;;;;;21.10;64.10;;;;;;5042788;28;87438;-38
2022/08/26 05:22:28;;;;;;;;;;;21.20;64.20;;;;;;5040796;28;88885;-38
2022/08/26 05:24:54;;;;;;;;;;;21.20;64.10;;;;;;5042551;28;87174;-38
2022/08/26 05:27:19;;;;;;;;;;;21.10;64.00;;;;;;5042661;28;87723;-38
2022/08/26 05:29:45;;;;;;;;;;;21.10;64.10;;;;;;5042083;28;88183;-38
2022/08/26 05:32:10;;;;;;;;;;;21.10;64.10;;;;;;5042655;28;87128;-38
2022/08/26 05:34:36;;;;;;;;;;;21.10;64.10;;;;;;5043510;27;89006;-38
2022/08/26 05:37:03;;;;;;;;;;;21.10;64.10;;;;;;5048818;28;87851;-38
2022/08/26 05:39:30;;;;;;;;;;;21.10;64.10;;;;;;5046443;27;89121;-38
2022/08/26 05:41:56;;;;;;;;;;;21.10;64.20;;;;;;5045633;28;88076;-38
2022/08/26 05:44:21;;;;;;;;;;;21.10;64.20;;;;;;5046210;28;86975;-38
2022/08/26 05:46:47;;;;;;;;;;;21.10;64.20;;;;;;5045337;28;87874;-38
2022/08/26 05:49:14;;;;;;;;;;;21.10;64.20;;;;;;5045925;28;88053;-38
2022/08/26 05:51:40;;;;;;;;;;;21.10;64.30;;;;;;5045798;28;87016;-38
2022/08/26 05:54:06;;;;;;;;;;;21.10;64.20;;;;;;5045783;27;87350;-38
2022/08/26 05:56:31;;;;;;;;;;;21.10;64.20;;;;;;5045510;28;88094;-38
2022/08/26 05:58:57;;;;;;;;;;;21.10;64.20;;;;;;5049007;28;87088;-38
2022/08/26 06:01:26;;;;;;;;;;;21.10;64.20;;;;;;5045505;28;88184;-38
2022/08/26 06:03:54;;;;;;;;;;;21.10;64.40;;;;;;5045942;28;86443;-38
2022/08/26 06:06:21;;;;;;;;;;;21.00;64.40;;;;;;5045511;28;86912;-38
2022/08/26 06:08:46;;;;;;;;;;;21.00;64.40;;;;;;5045271;28;88069;-38
2022/08/26 06:11:13;;;;;;;;;;;21.10;64.40;;;;;;5044819;28;88353;-38
2022/08/26 06:13:39;;;;;;;;;;;21.10;64.30;;;;;;5045456;27;88321;-38
2022/08/26 06:16:06;;;;;;;;;;;21.10;64.30;;;;;;5044806;28;89319;-38
2022/08/26 06:18:35;;;;;;;;;;;21.00;64.40;;;;;;5045399;28;87065;-38
2022/08/26 06:21:18;;;;;;;;;;;21.00;64.40;;;;;;5047742;27;88656;-38
2022/08/26 06:26:28;;;;;;;;;;;21.10;64.30;;;;;;5045437;28;87035;-38
2022/08/26 06:28:54;;;;;;;;;;;21.10;64.50;;;;;;5045356;28;88759;-38
2022/08/26 06:31:21;;;;;;;;;;;21.00;65.00;;;;;;5045292;28;87082;-39
2022/08/26 06:33:47;;;;;;;;;;;21.00;64.50;;;;;;5045145;28;87225;-38
2022/08/26 06:36:19;;;;;;;;;;;21.00;64.60;;;;;;5044197;28;88939;-38
2022/08/26 06:38:49;;;;;;;;;;;21.00;64.60;;;;;;5045040;28;87107;-38
2022/08/26 06:41:15;;;;;;;;;;;21.00;64.60;;;;;;5047869;27;87180;-38
2022/08/26 06:43:40;;;;;;;;;;;21.00;64.70;;;;;;5045103;28;86809;-38
2022/08/26 06:46:07;;;;;;;;;;;21.00;64.80;;;;;;5044265;27;88808;-38
2022/08/26 06:48:33;;;;;;;;;;;21.00;65.30;;;;;;5044515;28;88063;-38
2022/08/26 06:51:03;;;;;;;;;;;21.00;64.80;;;;;;5045278;28;87105;-38
2022/08/26 06:53:28;;;;;;;;;;;21.00;64.70;;;;;;5045475;27;87407;-38
2022/08/26 06:55:54;;;;;;;;;;;21.00;64.70;;;;;;5044678;28;88196;-38
2022/08/26 06:58:19;;;;;;;;;;;21.00;64.80;;;;;;5044842;28;87063;-39
2022/08/26 07:00:45;;;;;;;;;;;21.00;64.70;;;;;;5044461;28;88014;-38
2022/08/26 07:03:12;;;;;;;;;;;21.00;64.60;;;;;;5047168;28;88058;-38
2022/08/26 07:05:37;;;;;;;;;;;21.00;64.70;;;;;;5044499;27;89030;-38
2022/08/26 07:08:04;;;;;;;;;;;21.00;64.70;;;;;;5044053;28;88109;-38
2022/08/26 07:10:30;;;;;;;;;;;21.00;64.70;;;;;;5044506;28;87123;-38
2022/08/26 07:12:55;;;;;;;;;;;21.00;64.60;;;;;;5044271;27;88743;-38
2022/08/26 07:15:21;;;;;;;;;;;21.00;64.60;;;;;;5044152;28;88145;-38
2022/08/26 07:17:46;;;;;;;;;;;21.10;64.60;;;;;;5045111;28;86425;-38
2022/08/26 07:20:12;;;;;;;;;;;21.00;64.60;;;;;;5044616;28;87019;-38
2022/08/26 07:22:38;;;;;;;;;;;21.00;64.70;;;;;;5043266;28;88611;-38
2022/08/26 07:25:06;;;;;;;;;;;21.00;64.70;;;;;;5046773;28;88094;-38
2022/08/26 07:27:32;;;;;;;;;;;21.00;64.80;;;;;;5043845;28;88471;-38
2022/08/26 07:29:58;;;;;;;;;;;21.00;64.80;;;;;;5044381;28;87038;-38
2022/08/26 07:32:23;;;;;;;;;;;21.10;64.80;;;;;;5043983;28;87287;-38
2022/08/26 07:34:49;;;;;;;;;;;21.10;64.80;;;;;;5044082;28;87837;-38
2022/08/26 07:37:14;;;;;;;;;;;21.10;64.80;;;;;;5044431;28;87039;-38
2022/08/26 07:39:40;;;;;;;;;;;21.10;64.80;;;;;;5044331;28;87373;-38
2022/08/26 07:42:06;;;;;;;;;;;21.10;64.80;;;;;;5044008;28;88857;-38
2022/08/26 07:44:32;;;;;;;;;;;21.10;64.80;;;;;;5044412;28;87103;-38
2022/08/26 07:46:58;;;;;;;;;;;21.10;64.80;;;;;;5046693;27;87366;-38
2022/08/26 07:49:25;;;;;;;;;;;21.10;64.80;;;;;;5043340;28;88101;-38
2022/08/26 07:51:51;;;;;;;;;;;21.10;64.80;;;;;;5043607;27;90026;-38
2022/08/26 07:54:17;;;;;;;;;;;21.10;64.90;;;;;;5043662;28;87900;-38
2022/08/26 07:56:43;;;;;;;;;;;21.10;64.90;;;;;;5043254;27;87116;-38
2022/08/26 07:59:09;;;;;;;;;;;21.10;64.80;;;;;;5043523;27;88750;-38
2022/08/26 08:01:35;;;;;;;;;;;21.10;64.90;;;;;;5043472;28;87457;-38
2022/08/26 08:04:00;;;;;;;;;;;21.10;65.00;;;;;;5043861;28;87287;-38
2022/08/26 08:06:26;;;;;;;;;;;21.10;65.00;;;;;;5043902;27;87337;-38
2022/08/26 08:08:52;;;;;;;;;;;21.10;65.00;;;;;;5046613;28;88287;-38
2022/08/26 08:11:20;;;;;;;;;;;21.10;65.00;;;;;;5043584;27;88933;-38
2022/08/26 08:13:46;;;;;;;;;;;21.10;65.10;;;;;;5042593;28;88760;-38
2022/08/26 08:16:11;;;;;;;;;;;21.10;64.90;;;;;;5043458;28;87779;-38
2022/08/26 08:18:37;;;;;;;;;;;21.10;64.90;;;;;;5043656;28;87565;-38
2022/08/26 08:21:03;;;;;;;;;;;21.00;64.90;;;;;;5043278;28;87215;-39
2022/08/26 08:23:29;;;;;;;;;;;21.10;65.10;;;;;;5043166;28;87674;-38
2022/08/26 08:26:02;;;;;;;;;;;21.10;65.00;;;;;;5043632;27;87185;-38
2022/08/26 08:28:28;;;;;;;;;;;21.10;65.00;;;;;;5043004;28;88055;-38
2022/08/26 08:30:53;;;;;;;;;;;21.10;65.00;;;;;;5046659;28;86233;-38
2022/08/26 08:33:19;;;;;;;;;;;21.10;65.00;;;;;;5043079;28;87593;-38
2022/08/26 08:35:45;;;;;;;;;;;21.10;65.10;;;;;;5043298;28;87104;-38
2022/08/26 08:38:10;;;;;;;;;;;21.00;65.00;;;;;;5042939;28;88557;-38
2022/08/26 08:40:38;;;;;;;;;;;21.10;65.00;;;;;;5042942;28;87890;-38
2022/08/26 08:43:05;;;;;;;;;;;21.10;65.10;;;;;;5042968;28;87046;-38
2022/08/26 08:45:34;;;;;;;;;;;21.10;65.00;;;;;;5043043;27;88840;-38
2022/08/26 08:48:25;;;;;;;;;;;21.10;65.10;;;;;;5042884;28;87581;-38
2022/08/26 08:50:52;;;;;;;;;;;21.10;64.90;;;;;;5043376;28;86921;-38
2022/08/26 08:53:29;;;;;;;;;;;21.10;64.90;;;;;;5042631;28;88244;-38
2022/08/26 08:55:55;;;;;;;;;;;21.10;64.90;;;;;;5043703;28;86340;-38
2022/08/26 08:58:23;;;;;;;;;;;21.10;64.90;;;;;;5043165;28;87005;-38
2022/08/26 09:00:52;;;;;;;;;;;21.20;64.80;;;;;;5042412;28;88901;-38
2022/08/26 09:03:27;;;;;;;;;;;21.20;64.70;;;;;;5042014;28;88145;-39
2022/08/26 09:05:54;;;;;;;;;;;21.20;64.60;;;;;;5043044;28;88441;-38
2022/08/26 09:08:26;;;;;;;;;;;21.20;64.50;;;;;;5041557;27;89722;-39
2022/08/26 09:10:53;;;;;;;;;;;21.20;64.50;;;;;;5042704;28;86892;-38
2022/08/26 09:13:19;;;;;;;;;;;21.20;64.50;;;;;;5045396;27;87182;-38
2022/08/26 09:15:57;;;;;;;;;;;21.20;64.50;;;;;;5042810;28;87070;-39
2022/08/26 09:18:41;;;;;;;;;;;21.20;64.50;;;;;;5042903;28;87467;-38
2022/08/26 09:21:08;;;;;;;;;;;21.20;64.40;;;;;;5042474;27;87242;-38
2022/08/26 09:23:36;;;;;;;;;;;21.20;64.50;;;;;;5042459;28;86902;-38
2022/08/26 09:26:11;;;;;;;;;;;21.20;64.50;;;;;;5042511;27;87428;-38
2022/08/26 09:28:39;;;;;;;;;;;21.20;64.40;;;;;;5041655;28;89019;-38
2022/08/26 09:31:12;;;;;;;;;;;21.30;64.30;;;;;;5042340;28;87091;-38
2022/08/26 09:33:39;;;;;;;;;;;21.30;64.30;;;;;;5042445;27;87076;-38
2022/08/26 09:36:25;;;;;;;;;;;21.30;64.30;;;;;;5044876;28;88623;-38
2022/08/26 09:38:51;;;;;;;;;;;21.30;64.20;;;;;;5034355;28;89227;-38
2022/08/26 09:41:30;;;;;;;;;;;21.30;64.30;;;;;;5041788;28;89321;-38
2022/08/26 09:44:16;;;;;;;;;;;21.30;64.30;;;;;;5042175;28;87195;-38
2022/08/26 09:46:51;;;;;;;;;;;21.30;64.70;;;;;;5042607;27;88899;-38
2022/08/26 09:49:22;;;;;;;;;;;21.30;64.00;;;;;;5041771;28;89516;-39
2022/08/26 09:52:01;;;;;;;;;;;21.30;64.00;;;;;;5042024;28;87090;-38
2022/08/26 09:54:26;;;;;;;;;;;21.40;63.80;;;;;;5041566;27;87853;-38
2022/08/26 09:56:53;;;;;;;;;;;21.30;63.80;;;;;;5041940;28;88168;-38
2022/08/26 09:59:28;;;;;;;;;;;21.40;63.60;;;;;;5045060;28;87069;-38
2022/08/26 10:01:54;;;;;;;;;;;21.40;63.40;;;;;;5042069;28;87869;-38
2022/08/26 10:04:21;;;;;;;;;;;21.40;63.60;;;;;;5042078;28;87129;-38
2022/08/26 10:06:59;;;;;;;;;;;21.40;63.50;;;;;;5041815;27;87662;-39
2022/08/26 10:09:25;;;;;;;;;;;21.40;63.50;;;;;;5041932;28;88010;-38
2022/08/26 10:11:52;;;;;;;;;;;21.40;63.50;;;;;;5042246;28;86127;-38
2022/08/26 10:14:21;;;;;;;;;;;21.40;63.50;;;;;;5042009;28;88685;-38
2022/08/26 10:16:53;;;;;;;;;;;21.40;63.60;;;;;;5041798;28;87839;-37
2022/08/26 10:19:20;;;;;;;;;;;21.40;63.40;;;;;;5041176;27;88164;-38
2022/08/26 10:21:59;;;;;;;;;;;21.40;63.30;;;;;;5045753;27;89831;-40
2022/08/26 10:24:33;;;;;;;;;;;21.50;63.40;;;;;;5045302;28;87041;-42
2022/08/26 10:27:17;;;;;;;;;;;21.50;58.70;;;;;;5045344;27;88785;-38
2022/08/26 10:29:45;;;;;;;;;;;21.50;58.50;;;;;;5044971;27;88112;-38
2022/08/26 10:32:14;;;;;;;;;;;21.60;56.50;;;;;;5044971;28;87071;-39
2022/08/26 10:34:41;;;;;;;;;;;21.60;56.30;;;;;;5045169;27;87483;-41
2022/08/26 10:37:11;;;;;;;;;;;21.60;56.20;;;;;;5045322;28;87275;-42
2022/08/26 10:39:36;;;;;;;;;;;21.60;57.20;;;;;;5045129;28;87016;-40
2022/08/26 10:42:06;;;;;;;;;;;21.70;56.00;;;;;;5047829;28;87576;-40
2022/08/26 10:44:33;;;;;;;;;;;21.70;55.60;;;;;;5044191;28;87941;-36
2022/08/26 10:47:08;;;;;;;;;;;21.70;55.20;;;;;;5045022;28;87630;-41
2022/08/26 10:49:34;;;;;;;;;;;21.70;54.60;;;;;;5044556;28;87119;-39
2022/08/26 10:52:10;;;;;;;;;;;21.70;54.90;;;;;;5045054;28;86964;-40
2022/08/26 10:54:41;;;;;;;;;;;21.80;54.90;;;;;;5044865;27;89095;-38
2022/08/26 10:57:09;;;;;;;;;;;21.80;55.40;;;;;;5044511;28;88038;-41
2022/08/26 10:59:43;;;;;;;;;;;21.90;55.00;;;;;;5044910;28;87105;-40
2022/08/26 11:02:13;;;;;;;;;;;21.90;54.50;;;;;;5045144;27;88276;-40
2022/08/26 11:04:57;;;;;;;;;;;22.00;54.40;;;;;;5046966;28;89277;-40
2022/08/26 11:07:35;;;;;;;;;;;22.10;54.80;;;;;;5043172;28;90449;-42
2022/08/26 11:10:19;;;;;;;;;;;22.10;55.50;;;;;;5043602;28;90602;-44
2022/08/26 11:12:49;;;;;;;;;;;22.20;57.10;;;;;;5044568;28;87108;-42
2022/08/26 11:15:25;;;;;;;;;;;22.30;55.30;;;;;;5044746;28;87459;-40
2022/08/26 11:17:50;;;;;;;;;;;22.30;53.90;;;;;;5043939;28;89832;-39
2022/08/26 11:20:21;;;;;;;;;;;22.30;51.90;;;;;;5044502;28;87580;-39
2022/08/26 11:22:51;;;;;;;;;;;22.30;52.30;;;;;;5043896;27;88982;-40
2022/08/26 11:25:17;;;;;;;;;;;22.20;51.70;;;;;;5044171;28;87365;-40
2022/08/26 11:27:54;;;;;;;;;;;22.30;51.90;;;;;;5047682;28;86383;-39
2022/08/26 11:30:19;;;;;;;;;;;22.30;51.10;;;;;;5044055;28;87934;-39
2022/08/26 11:32:52;;;;;;;;;;;22.40;51.20;;;;;;5043851;27;87162;-39
2022/08/26 11:35:18;;;;;;;;;;;22.30;50.70;;;;;;5043746;28;87750;-39
2022/08/26 11:37:46;;;;;;;;;;;22.40;49.50;;;;;;5043530;28;89572;-44
2022/08/26 11:40:14;;;;;;;;;;;22.40;49.70;;;;;;5044187;28;87001;-39
2022/08/26 11:42:45;;;;;;;;;;;22.50;50.20;;;;;;5044275;27;86988;-39
2022/08/26 11:45:37;;;;;;;;;;;22.40;49.70;;;;;;5043448;28;89349;-39
2022/08/26 11:48:21;;;;;;;;;;;22.50;50.00;;;;;;5042062;28;87185;-39
2022/08/26 11:50:53;;;;;;;;;;;22.50;49.60;;;;;;5046555;27;87526;-39
2022/08/26 11:53:19;;;;;;;;;;;22.50;49.40;;;;;;5044498;28;86373;-44
2022/08/26 11:55:45;;;;;;;;;;;22.60;49.30;;;;;;5044056;27;87004;-39
2022/08/26 11:58:11;;;;;;;;;;;22.60;50.20;;;;;;5043726;28;88328;-39
2022/08/26 12:00:56;;;;;;;;;;;22.60;48.80;;;;;;5043490;28;88034;-39
2022/08/26 12:03:24;;;;;;;;;;;22.70;49.40;;;;;;5043536;28;88411;-39
2022/08/26 12:05:50;;;;;;;;;;;22.70;47.90;;;;;;5043467;28;88000;-39
2022/08/26 12:08:20;;;;;;;;;;;22.70;48.20;;;;;;5043581;28;87184;-39
2022/08/26 12:10:47;;;;;;;;;;;22.70;48.80;;;;;;5043654;27;88818;-39
2022/08/26 12:13:23;;;;;;;;;;;22.70;48.50;;;;;;5046076;28;89560;-39
2022/08/26 12:15:53;;;;;;;;;;;22.70;49.00;;;;;;5043681;27;87472;-39
2022/08/26 12:18:20;;;;;;;;;;;22.70;49.20;;;;;;5043604;28;88733;-40
2022/08/26 12:20:52;;;;;;;;;;;22.80;49.00;;;;;;5043462;28;87348;-40
2022/08/26 12:23:26;;;;;;;;;;;22.80;48.40;;;;;;5043186;27;89043;-40
2022/08/26 12:26:01;;;;;;;;;;;22.80;48.00;;;;;;5042357;28;89095;-39
2022/08/26 12:28:27;;;;;;;;;;;22.90;46.80;;;;;;5043670;28;86944;-41
2022/08/26 12:30:58;;;;;;;;;;;22.90;47.90;;;;;;5043630;27;86958;-44
2022/08/26 12:33:24;;;;;;;;;;;22.90;48.80;;;;;;5042846;28;88261;-42
2022/08/26 12:35:50;;;;;;;;;;;23.10;50.50;;;;;;5046122;28;87146;-42
2022/08/26 12:38:16;;;;;;;;;;;23.10;48.50;;;;;;5042966;28;87519;-43
2022/08/26 12:40:43;;;;;;;;;;;23.10;47.50;;;;;;5043225;28;87137;-38
2022/08/26 12:43:09;;;;;;;;;;;23.10;46.90;;;;;;5043178;27;87359;-39
2022/08/26 12:45:36;;;;;;;;;;;23.10;47.10;;;;;;5042680;28;89380;-38
2022/08/26 12:48:06;;;;;;;;;;;23.10;46.90;;;;;;5042961;28;87153;-37
2022/08/26 12:50:34;;;;;;;;;;;23.10;48.00;;;;;;5042508;27;87819;-38
2022/08/26 12:53:00;;;;;;;;;;;23.00;48.40;;;;;;5042470;28;89459;-38
2022/08/26 12:55:34;;;;;;;;;;;22.90;49.10;;;;;;5045844;28;87136;-37
2022/08/26 12:58:11;;;;;;;;;;;23.00;50.00;;;;;;5042477;28;89535;-37
2022/08/26 13:00:39;;;;;;;;;;;23.00;49.90;;;;;;5042833;28;87104;-37
2022/08/26 13:03:24;;;;;;;;;;;23.10;50.40;;;;;;5043049;28;87406;-37
2022/08/26 13:05:50;;;;;;;;;;;23.10;50.70;;;;;;5042472;28;87643;-37
2022/08/26 13:08:25;;;;;;;;;;;23.10;50.50;;;;;;5043337;28;86304;-38
2022/08/26 13:11:01;;;;;;;;;;;23.10;50.50;;;;;;5042897;27;86940;-37
2022/08/26 13:13:27;;;;;;;;;;;23.10;50.90;;;;;;5042342;28;87919;-37
2022/08/26 13:15:53;;;;;;;;;;;23.20;51.00;;;;;;5042199;28;87935;-37
2022/08/26 13:18:19;;;;;;;;;;;23.20;51.00;;;;;;5045407;27;87381;-37
2022/08/26 13:20:44;;;;;;;;;;;23.20;51.30;;;;;;5042804;28;87183;-37
2022/08/26 13:23:10;;;;;;;;;;;23.20;51.30;;;;;;5042642;28;87421;-38
2022/08/26 13:25:35;;;;;;;;;;;23.10;49.60;;;;;;5041746;28;89375;-39
2022/08/26 13:28:01;;;;;;;;;;;23.10;48.50;;;;;;5042713;28;87118;-38
2022/08/26 13:30:26;;;;;;;;;;;23.10;47.30;;;;;;5042697;28;87480;-39
2022/08/26 13:32:55;;;;;;;;;;;23.20;48.10;;;;;;5042822;28;87440;-41
2022/08/26 13:35:20;;;;;;;;;;;23.20;48.90;;;;;;5042599;28;87195;-39
2022/08/26 13:37:46;;;;;;;;;;;23.30;47.50;;;;;;5042684;28;87422;-39
2022/08/26 13:40:11;;;;;;;;;;;23.40;46.60;;;;;;5044361;28;90335;-43
2022/08/26 13:42:37;;;;;;;;;;;23.40;47.00;;;;;;5042399;27;90079;-40
2022/08/26 13:45:03;;;;;;;;;;;23.40;47.30;;;;;;5041991;28;87904;-38
2022/08/26 13:47:29;;;;;;;;;;;23.50;47.90;;;;;;5042149;28;87053;-38
2022/08/26 13:49:55;;;;;;;;;;;23.40;48.90;;;;;;5042334;27;88042;-37
2022/08/26 13:52:20;;;;;;;;;;;23.30;49.40;;;;;;5042070;28;87962;-38
2022/08/26 13:54:46;;;;;;;;;;;23.20;50.00;;;;;;5042269;28;87141;-42
2022/08/26 13:57:11;;;;;;;;;;;23.20;48.60;;;;;;5046433;28;87482;-37
2022/08/26 13:59:37;;;;;;;;;;;23.40;48.80;;;;;;5045519;28;88102;-37
2022/08/26 14:02:02;;;;;;;;;;;23.30;48.10;;;;;;5048694;28;87092;-38
2022/08/26 14:04:28;;;;;;;;;;;23.30;48.20;;;;;;5044535;28;90393;-37
2022/08/26 14:06:53;;;;;;;;;;;23.40;47.90;;;;;;5045631;28;87116;-37
2022/08/26 14:09:19;;;;;;;;;;;23.40;48.20;;;;;;5045496;28;87414;-40
2022/08/26 14:11:44;;;;;;;;;;;23.40;50.00;;;;;;5045447;28;88133;-41
2022/08/26 14:14:10;;;;;;;;;;;23.50;50.30;;;;;;5045588;28;87080;-38
2022/08/26 14:16:38;;;;;;;;;;;23.50;48.30;;;;;;5045436;28;87619;-39
2022/08/26 14:19:06;;;;;;;;;;;23.60;47.50;;;;;;5045178;28;88110;-42
2022/08/26 14:21:33;;;;;;;;;;;23.60;47.60;;;;;;5045500;28;86444;-38
2022/08/26 14:24:06;;;;;;;;;;;23.60;47.50;;;;;;5047446;28;87163;-38
2022/08/26 14:26:32;;;;;;;;;;;23.60;47.00;;;;;;5042717;28;87098;-40